Time;durP1;ratioP1;P1;durP2;ratioP2;P2;SDS_P1;SDS_P2;PMS_P1;PMS_P2;Temp;Humidity;BMP_temperature;BMP_pressure;BME280_temperature;BME280_humidity;BME280_pressure;Samples;Min_cycle;Max_cycle;Signal;HPM_P1;HPM_P2
2021/12/30 00:01:43;;;;;;;0.10;0.10;;;;;;;;;;5023017;28;20208;-75
2021/12/30 00:04:09;;;;;;;0.10;0.10;;;;;;;;;;5022619;28;20243;-76
2021/12/30 00:06:39;;;;;;;0.10;0.10;;;;;;;;;;5022589;28;20204;-74
2021/12/30 00:09:07;;;;;;;0.10;0.10;;;;;;;;;;5022785;28;20204;-75
2021/12/30 00:11:33;;;;;;;0.10;0.10;;;;;;;;;;5022691;28;20234;-75
2021/12/30 00:14:01;;;;;;;0.10;0.10;;;;;;;;;;5023053;28;20206;-74
2021/12/30 00:16:27;;;;;;;0.10;0.10;;;;;;;;;;5022250;28;20613;-75
2021/12/30 00:18:53;;;;;;;0.10;0.10;;;;;;;;;;5022546;28;20303;-75
2021/12/30 00:21:20;;;;;;;0.63;0.63;;;;;;;;;;5025256;28;20205;-75
2021/12/30 00:23:47;;;;;;;0.10;0.10;;;;;;;;;;5026340;28;20224;-75
2021/12/30 00:26:13;;;;;;;0.10;0.10;;;;;;;;;;5026469;28;20200;-74
2021/12/30 00:28:39;;;;;;;0.20;0.20;;;;;;;;;;5026290;28;20303;-74
2021/12/30 00:31:07;;;;;;;0.10;0.10;;;;;;;;;;5026399;28;20250;-75
2021/12/30 00:33:34;;;;;;;0.10;0.10;;;;;;;;;;5026207;28;20443;-75
2021/12/30 00:36:02;;;;;;;1.93;1.93;;;;;;;;;;5025922;28;20224;-75
2021/12/30 00:38:28;;;;;;;0.10;0.10;;;;;;;;;;5026120;28;20212;-74
2021/12/30 00:40:54;;;;;;;0.10;0.10;;;;;;;;;;5026489;28;20271;-75
2021/12/30 00:43:20;;;;;;;0.10;0.10;;;;;;;;;;5026246;28;20208;-75
2021/12/30 00:45:47;;;;;;;0.10;0.10;;;;;;;;;;5026173;28;20204;-74
2021/12/30 00:48:14;;;;;;;0.10;0.10;;;;;;;;;;5025758;28;20212;-74
2021/12/30 00:50:44;;;;;;;0.10;0.10;;;;;;;;;;5025732;28;20237;-74
2021/12/30 00:53:11;;;;;;;0.10;0.10;;;;;;;;;;5025961;28;20209;-74
2021/12/30 00:55:37;;;;;;;0.73;0.73;;;;;;;;;;5025741;28;20286;-74
2021/12/30 00:58:04;;;;;;;0.10;0.10;;;;;;;;;;5025711;28;20504;-74
2021/12/30 01:00:31;;;;;;;0.10;0.10;;;;;;;;;;5025589;28;20243;-74
2021/12/30 01:02:58;;;;;;;0.43;0.43;;;;;;;;;;5025849;28;20252;-74
2021/12/30 01:05:25;;;;;;;0.10;0.10;;;;;;;;;;5025933;28;20204;-74
2021/12/30 01:07:52;;;;;;;0.10;0.10;;;;;;;;;;5025814;28;20205;-75
2021/12/30 01:10:20;;;;;;;2.47;2.27;;;;;;;;;;5025497;28;20228;-74
2021/12/30 01:12:46;;;;;;;0.10;0.10;;;;;;;;;;5029672;28;20511;-74
2021/12/30 01:15:13;;;;;;;0.10;0.10;;;;;;;;;;5045219;28;20276;-74
2021/12/30 01:17:47;;;;;;;0.10;0.10;;;;;;;;;;5045013;28;20499;-73
2021/12/30 01:20:15;;;;;;;0.10;0.10;;;;;;;;;;5045207;28;20202;-75
2021/12/30 01:22:43;;;;;;;0.17;0.17;;;;;;;;;;5044973;28;20246;-74
2021/12/30 01:25:11;;;;;;;0.10;0.10;;;;;;;;;;5044771;28;20207;-74
2021/12/30 01:27:39;;;;;;;0.10;0.10;;;;;;;;;;5044879;28;20216;-75
2021/12/30 01:30:06;;;;;;;0.10;0.10;;;;;;;;;;5044803;28;20234;-74
2021/12/30 01:32:33;;;;;;;0.13;0.13;;;;;;;;;;5044217;28;20208;-74
2021/12/30 01:35:00;;;;;;;0.10;0.10;;;;;;;;;;5045075;28;20428;-75
2021/12/30 01:37:26;;;;;;;0.10;0.10;;;;;;;;;;5044645;28;20306;-73
2021/12/30 01:39:54;;;;;;;2.53;2.43;;;;;;;;;;5044544;28;20219;-74
2021/12/30 01:42:20;;;;;;;0.10;0.10;;;;;;;;;;5044888;28;20502;-73
2021/12/30 01:44:46;;;;;;;0.10;0.10;;;;;;;;;;5038330;28;20197;-74
2021/12/30 01:47:12;;;;;;;0.20;0.20;;;;;;;;;;5024969;28;20211;-74
2021/12/30 01:49:39;;;;;;;0.10;0.10;;;;;;;;;;5024495;28;20215;-74
2021/12/30 01:52:05;;;;;;;0.20;0.20;;;;;;;;;;5024500;28;20225;-74
2021/12/30 01:54:32;;;;;;;0.10;0.10;;;;;;;;;;5024860;28;20495;-73
2021/12/30 01:57:00;;;;;;;0.10;0.10;;;;;;;;;;5024406;28;20225;-73
2021/12/30 01:59:26;;;;;;;0.20;0.20;;;;;;;;;;5024381;28;20316;-74
2021/12/30 02:01:56;;;;;;;0.10;0.10;;;;;;;;;;5024677;28;20508;-74
2021/12/30 02:04:22;;;;;;;0.10;0.10;;;;;;;;;;5024434;28;20272;-74
2021/12/30 02:06:49;;;;;;;0.10;0.10;;;;;;;;;;5024423;28;20240;-74
2021/12/30 02:09:17;;;;;;;0.10;0.10;;;;;;;;;;5024054;28;20205;-74
2021/12/30 02:11:44;;;;;;;0.10;0.10;;;;;;;;;;5024256;28;20383;-74
2021/12/30 02:14:11;;;;;;;0.13;0.13;;;;;;;;;;5039971;28;20211;-74
2021/12/30 02:16:38;;;;;;;0.10;0.10;;;;;;;;;;5043656;28;20227;-74
2021/12/30 02:19:04;;;;;;;0.10;0.10;;;;;;;;;;5044021;28;20381;-74
2021/12/30 02:21:32;;;;;;;0.10;0.10;;;;;;;;;;5043750;28;20227;-74
2021/12/30 02:23:58;;;;;;;0.10;0.10;;;;;;;;;;5044003;28;20230;-74
2021/12/30 02:26:25;;;;;;;0.10;0.10;;;;;;;;;;5043930;28;20274;-75
2021/12/30 02:28:52;;;;;;;0.10;0.10;;;;;;;;;;5043959;28;20207;-75
2021/12/30 02:31:19;;;;;;;0.10;0.10;;;;;;;;;;5043575;28;20277;-76
2021/12/30 02:33:46;;;;;;;0.10;0.10;;;;;;;;;;5043886;28;20434;-75
2021/12/30 02:36:13;;;;;;;0.10;0.10;;;;;;;;;;5023967;28;20237;-74
2021/12/30 02:38:44;;;;;;;0.20;0.20;;;;;;;;;;5023607;28;20219;-74
2021/12/30 02:41:14;;;;;;;0.10;0.10;;;;;;;;;;5023728;28;20288;-74
2021/12/30 02:43:40;;;;;;;0.10;0.10;;;;;;;;;;5023952;28;20380;-74
2021/12/30 02:46:06;;;;;;;0.10;0.10;;;;;;;;;;5023925;28;20204;-74
2021/12/30 02:48:36;;;;;;;0.10;0.10;;;;;;;;;;5023492;28;20257;-74
2021/12/30 02:51:03;;;;;;;0.10;0.10;;;;;;;;;;5023132;28;20515;-75
2021/12/30 02:53:30;;;;;;;0.20;0.20;;;;;;;;;;5023599;28;20201;-74
2021/12/30 02:55:57;;;;;;;0.20;0.20;;;;;;;;;;5023601;28;20559;-74
2021/12/30 02:58:24;;;;;;;0.10;0.10;;;;;;;;;;5023737;28;20434;-73
2021/12/30 03:00:51;;;;;;;0.10;0.10;;;;;;;;;;5022817;28;20212;-73
2021/12/30 03:03:18;;;;;;;0.17;0.17;;;;;;;;;;5023427;28;20207;-73
2021/12/30 03:05:44;;;;;;;0.10;0.10;;;;;;;;;;5023178;28;20212;-73
2021/12/30 03:08:11;;;;;;;0.10;0.10;;;;;;;;;;5023432;28;20570;-74
2021/12/30 03:10:37;;;;;;;0.10;0.10;;;;;;;;;;5023431;28;20208;-73
2021/12/30 03:13:07;;;;;;;0.13;0.13;;;;;;;;;;5023317;28;20208;-74
2021/12/30 03:15:36;;;;;;;0.10;0.10;;;;;;;;;;5023169;28;20196;-74
2021/12/30 03:18:03;;;;;;;0.10;0.10;;;;;;;;;;5022512;28;20250;-74
2021/12/30 03:20:31;;;;;;;0.10;0.10;;;;;;;;;;5023423;28;20211;-74
2021/12/30 03:22:58;;;;;;;0.10;0.10;;;;;;;;;;5023254;28;20254;-74
2021/12/30 03:25:24;;;;;;;0.33;0.33;;;;;;;;;;5011427;28;20217;-74
2021/12/30 03:27:50;;;;;;;0.10;0.10;;;;;;;;;;5003726;28;20248;-73
2021/12/30 03:30:18;;;;;;;0.10;0.10;;;;;;;;;;5003429;28;20237;-74
2021/12/30 03:32:44;;;;;;;0.20;0.20;;;;;;;;;;5003315;28;20201;-75
2021/12/30 03:35:13;;;;;;;0.10;0.10;;;;;;;;;;5003165;28;20210;-74
2021/12/30 03:37:40;;;;;;;0.10;0.10;;;;;;;;;;5003154;28;20275;-74
2021/12/30 03:40:09;;;;;;;0.37;0.37;;;;;;;;;;5003535;28;20564;-74
2021/12/30 03:42:35;;;;;;;0.13;0.13;;;;;;;;;;5003329;28;20202;-74
2021/12/30 03:45:02;;;;;;;0.20;0.20;;;;;;;;;;5003150;28;20205;-74
2021/12/30 03:47:30;;;;;;;0.10;0.10;;;;;;;;;;5003467;28;20354;-74
2021/12/30 03:49:56;;;;;;;0.10;0.10;;;;;;;;;;5003210;28;20208;-73
2021/12/30 03:52:27;;;;;;;0.10;0.10;;;;;;;;;;5003363;28;20294;-74
2021/12/30 03:54:54;;;;;;;0.10;0.10;;;;;;;;;;5004102;28;20273;-74
2021/12/30 03:57:20;;;;;;;0.10;0.10;;;;;;;;;;5007415;28;20257;-75
2021/12/30 03:59:46;;;;;;;0.30;0.30;;;;;;;;;;5007016;28;20244;-74
2021/12/30 04:02:13;;;;;;;0.10;0.10;;;;;;;;;;5006983;28;20205;-74
2021/12/30 04:04:40;;;;;;;0.40;0.40;;;;;;;;;;5006869;28;20258;-74
2021/12/30 04:07:07;;;;;;;0.10;0.10;;;;;;;;;;5006952;28;20436;-74
2021/12/30 04:09:33;;;;;;;0.10;0.10;;;;;;;;;;5006977;28;20378;-75
2021/12/30 04:11:59;;;;;;;0.10;0.10;;;;;;;;;;5006779;28;20268;-74
2021/12/30 04:14:26;;;;;;;0.10;0.10;;;;;;;;;;5010589;28;20295;-74
2021/12/30 04:16:52;;;;;;;0.13;0.13;;;;;;;;;;5026693;28;20292;-75
2021/12/30 04:19:18;;;;;;;0.10;0.10;;;;;;;;;;5026626;28;20271;-74
2021/12/30 04:21:46;;;;;;;0.17;0.17;;;;;;;;;;5026559;28;20562;-74
2021/12/30 04:24:13;;;;;;;0.10;0.10;;;;;;;;;;5026600;28;20210;-75
2021/12/30 04:26:39;;;;;;;0.10;0.10;;;;;;;;;;5026498;28;20201;-75
2021/12/30 04:29:05;;;;;;;0.10;0.10;;;;;;;;;;5026498;28;20435;-74
2021/12/30 04:31:32;;;;;;;0.50;0.50;;;;;;;;;;5026427;28;20242;-75
2021/12/30 04:33:58;;;;;;;0.10;0.10;;;;;;;;;;5026313;28;20263;-75
2021/12/30 04:36:24;;;;;;;0.10;0.10;;;;;;;;;;5025988;28;20279;-75
2021/12/30 04:38:52;;;;;;;0.10;0.10;;;;;;;;;;5025928;28;20205;-74
2021/12/30 04:41:18;;;;;;;0.53;0.53;;;;;;;;;;5025951;28;20198;-75
2021/12/30 04:43:44;;;;;;;0.10;0.10;;;;;;;;;;5026265;28;20205;-74
2021/12/30 04:46:11;;;;;;;0.10;0.10;;;;;;;;;;5026046;28;20438;-75
2021/12/30 04:48:37;;;;;;;0.10;0.10;;;;;;;;;;5025999;28;20208;-74
2021/12/30 04:51:03;;;;;;;0.10;0.10;;;;;;;;;;5025611;28;20236;-74
2021/12/30 04:53:30;;;;;;;0.20;0.20;;;;;;;;;;5025988;28;20209;-74
2021/12/30 04:55:57;;;;;;;0.10;0.10;;;;;;;;;;5025954;28;20252;-74
2021/12/30 04:58:24;;;;;;;0.10;0.10;;;;;;;;;;5025584;28;20276;-74
2021/12/30 05:00:50;;;;;;;0.10;0.10;;;;;;;;;;5025689;28;20205;-75
2021/12/30 05:03:16;;;;;;;0.10;0.10;;;;;;;;;;5025174;28;20205;-74
2021/12/30 05:05:44;;;;;;;0.10;0.10;;;;;;;;;;5025353;28;20259;-74
2021/12/30 05:08:11;;;;;;;0.10;0.10;;;;;;;;;;5024972;28;20473;-75
2021/12/30 05:10:37;;;;;;;0.30;0.30;;;;;;;;;;5025278;28;20439;-75
2021/12/30 05:13:05;;;;;;;0.10;0.10;;;;;;;;;;5032023;28;20208;-74
2021/12/30 05:15:32;;;;;;;0.10;0.10;;;;;;;;;;5045383;28;20243;-75
2021/12/30 05:17:58;;;;;;;0.10;0.10;;;;;;;;;;5045262;28;20224;-75
2021/12/30 05:20:24;;;;;;;0.10;0.10;;;;;;;;;;5044986;28;20227;-75
2021/12/30 05:22:50;;;;;;;0.17;0.17;;;;;;;;;;5045278;28;20205;-75
2021/12/30 05:25:18;;;;;;;0.10;0.10;;;;;;;;;;5045187;28;20204;-75
2021/12/30 05:27:44;;;;;;;0.10;0.10;;;;;;;;;;5045079;28;20230;-75
2021/12/30 05:30:13;;;;;;;0.10;0.10;;;;;;;;;;5044751;28;20243;-75
2021/12/30 05:32:39;;;;;;;0.20;0.20;;;;;;;;;;5045128;28;20208;-75
2021/12/30 05:35:06;;;;;;;0.10;0.10;;;;;;;;;;5044742;28;20205;-76
2021/12/30 05:37:33;;;;;;;0.10;0.10;;;;;;;;;;5044877;28;20270;-76
2021/12/30 05:39:59;;;;;;;0.10;0.10;;;;;;;;;;5045168;28;20210;-76
2021/12/30 05:42:25;;;;;;;0.13;0.13;;;;;;;;;;5044936;28;20263;-76
2021/12/30 05:44:52;;;;;;;0.10;0.10;;;;;;;;;;5044887;28;20259;-75
2021/12/30 05:47:19;;;;;;;0.10;0.10;;;;;;;;;;5044435;28;20202;-75
2021/12/30 05:49:46;;;;;;;0.10;0.10;;;;;;;;;;5044449;28;20207;-75
2021/12/30 05:52:13;;;;;;;0.10;0.10;;;;;;;;;;5044388;28;20278;-75
2021/12/30 05:54:39;;;;;;;0.20;0.20;;;;;;;;;;5033012;28;20209;-75
2021/12/30 05:57:05;;;;;;;0.10;0.10;;;;;;;;;;5024421;28;20233;-75
2021/12/30 05:59:32;;;;;;;0.10;0.10;;;;;;;;;;5024785;28;20205;-76
2021/12/30 06:01:58;;;;;;;0.10;0.10;;;;;;;;;;5024712;28;20251;-75
2021/12/30 06:04:25;;;;;;;0.10;0.10;;;;;;;;;;5024598;28;20431;-75
2021/12/30 06:06:52;;;;;;;0.10;0.10;;;;;;;;;;5024337;28;20202;-75
2021/12/30 06:09:21;;;;;;;0.10;0.10;;;;;;;;;;5024640;28;20263;-76
2021/12/30 06:11:47;;;;;;;0.10;0.10;;;;;;;;;;5024321;28;20210;-75
2021/12/30 06:14:13;;;;;;;0.10;0.10;;;;;;;;;;5040449;28;20205;-76
2021/12/30 06:16:39;;;;;;;0.10;0.10;;;;;;;;;;5043911;28;20239;-76
2021/12/30 06:19:06;;;;;;;0.10;0.10;;;;;;;;;;5043535;28;20205;-75
2021/12/30 06:21:33;;;;;;;0.10;0.10;;;;;;;;;;5043796;28;20246;-76
2021/12/30 06:23:59;;;;;;;0.10;0.10;;;;;;;;;;5044030;28;20204;-75
2021/12/30 06:26:26;;;;;;;0.10;0.10;;;;;;;;;;5044163;28;20204;-76
2021/12/30 06:28:52;;;;;;;0.10;0.10;;;;;;;;;;5043599;28;20201;-76
2021/12/30 06:31:18;;;;;;;0.10;0.10;;;;;;;;;;5043796;28;20204;-76
2021/12/30 06:33:44;;;;;;;0.10;0.10;;;;;;;;;;5043689;28;20206;-75
2021/12/30 06:36:11;;;;;;;0.10;0.10;;;;;;;;;;5043894;28;20509;-76
2021/12/30 06:38:38;;;;;;;0.10;0.10;;;;;;;;;;5043622;28;20440;-76
2021/12/30 06:41:05;;;;;;;0.10;0.10;;;;;;;;;;5043859;28;20560;-76
2021/12/30 06:43:31;;;;;;;0.10;0.10;;;;;;;;;;5040631;28;20206;-76
2021/12/30 06:45:57;;;;;;;0.20;0.20;;;;;;;;;;5023621;28;20213;-76
2021/12/30 06:48:23;;;;;;;0.10;0.10;;;;;;;;;;5023736;28;20248;-76
2021/12/30 06:50:53;;;;;;;0.10;0.10;;;;;;;;;;5023227;28;20244;-76
2021/12/30 06:53:19;;;;;;;0.10;0.10;;;;;;;;;;5023393;28;20227;-76
2021/12/30 06:55:46;;;;;;;0.10;0.10;;;;;;;;;;5023846;28;20250;-76
2021/12/30 06:58:13;;;;;;;0.10;0.10;;;;;;;;;;5023589;28;20227;-76
2021/12/30 07:00:39;;;;;;;0.10;0.10;;;;;;;;;;5023557;28;20206;-76
2021/12/30 07:03:05;;;;;;;0.10;0.10;;;;;;;;;;5023830;28;20520;-76
2021/12/30 07:05:31;;;;;;;0.10;0.10;;;;;;;;;;5023931;28;20404;-75
2021/12/30 07:07:58;;;;;;;0.10;0.10;;;;;;;;;;5023271;28;20202;-76
2021/12/30 07:10:25;;;;;;;0.20;0.20;;;;;;;;;;5023377;28;20210;-76
2021/12/30 07:12:52;;;;;;;0.10;0.10;;;;;;;;;;5023621;28;20268;-75
2021/12/30 07:15:19;;;;;;;0.10;0.10;;;;;;;;;;5023550;28;20505;-75
2021/12/30 07:17:45;;;;;;;0.10;0.10;;;;;;;;;;5023476;28;20226;-75
2021/12/30 07:20:12;;;;;;;0.10;0.10;;;;;;;;;;5023486;28;20205;-74
2021/12/30 07:22:39;;;;;;;0.10;0.10;;;;;;;;;;5023492;28;20208;-75
2021/12/30 07:25:06;;;;;;;0.10;0.10;;;;;;;;;;5023408;28;20242;-75
2021/12/30 07:27:32;;;;;;;0.10;0.10;;;;;;;;;;5023401;28;20260;-75
2021/12/30 07:30:01;;;;;;;0.10;0.10;;;;;;;;;;5022490;28;20248;-76
2021/12/30 07:32:27;;;;;;;0.10;0.10;;;;;;;;;;5023675;28;20255;-76
2021/12/30 07:34:54;;;;;;;0.10;0.10;;;;;;;;;;5023454;28;20206;-76
2021/12/30 07:37:20;;;;;;;0.10;0.10;;;;;;;;;;5023304;28;20230;-76
2021/12/30 07:39:48;;;;;;;0.10;0.10;;;;;;;;;;5023596;28;20243;-76
2021/12/30 07:42:15;;;;;;;0.10;0.10;;;;;;;;;;5023589;28;20206;-76
2021/12/30 07:44:41;;;;;;;0.10;0.10;;;;;;;;;;5023651;28;20204;-77
2021/12/30 07:47:08;;;;;;;0.10;0.10;;;;;;;;;;5023149;28;20207;-73
2021/12/30 07:49:36;;;;;;;0.10;0.10;;;;;;;;;;5022872;28;20201;-75
2021/12/30 07:52:02;;;;;;;0.10;0.10;;;;;;;;;;5023222;28;20552;-75
2021/12/30 07:54:28;;;;;;;0.10;0.10;;;;;;;;;;5023243;28;20207;-75
2021/12/30 07:56:55;;;;;;;0.10;0.10;;;;;;;;;;5023193;28;20260;-74
2021/12/30 07:59:21;;;;;;;0.10;0.10;;;;;;;;;;5023153;28;20415;-74
2021/12/30 08:01:47;;;;;;;0.10;0.10;;;;;;;;;;5022718;28;20206;-76
2021/12/30 08:04:15;;;;;;;0.10;0.10;;;;;;;;;;5023803;28;20207;-75
2021/12/30 08:06:41;;;;;;;0.10;0.10;;;;;;;;;;5022888;28;20271;-75
2021/12/30 08:09:07;;;;;;;1.07;1.07;;;;;;;;;;5023046;28;20428;-76
2021/12/30 08:11:34;;;;;;;0.10;0.10;;;;;;;;;;5023404;28;20567;-76
2021/12/30 08:14:00;;;;;;;0.10;0.10;;;;;;;;;;5037197;28;20249;-75
2021/12/30 08:16:27;;;;;;;0.10;0.10;;;;;;;;;;5043177;28;20376;-75
2021/12/30 08:18:53;;;;;;;0.10;0.10;;;;;;;;;;5042617;28;20247;-75
2021/12/30 08:21:21;;;;;;;0.10;0.10;;;;;;;;;;5042398;28;20244;-76
2021/12/30 08:23:47;;;;;;;0.10;0.10;;;;;;;;;;5035661;28;20210;-75
2021/12/30 08:26:13;;;;;;;0.10;0.10;;;;;;;;;;5022974;28;20218;-76
2021/12/30 08:28:40;;;;;;;0.23;0.23;;;;;;;;;;5022575;28;20238;-76
2021/12/30 08:31:06;;;;;;;0.10;0.10;;;;;;;;;;5022589;28;20302;-76
2021/12/30 08:33:33;;;;;;;0.10;0.10;;;;;;;;;;5022696;28;20533;-76
2021/12/30 08:35:59;;;;;;;0.10;0.10;;;;;;;;;;5022538;28;20211;-76
2021/12/30 08:38:27;;;;;;;0.10;0.10;;;;;;;;;;5022390;28;20266;-76
2021/12/30 08:40:53;;;;;;;0.10;0.10;;;;;;;;;;5022936;28;20360;-76
2021/12/30 08:43:19;;;;;;;0.10;0.10;;;;;;;;;;5026197;28;20205;-75
2021/12/30 08:45:46;;;;;;;0.10;0.10;;;;;;;;;;5026197;28;20248;-75
2021/12/30 08:48:13;;;;;;;0.10;0.10;;;;;;;;;;5025798;28;20226;-76
2021/12/30 08:50:39;;;;;;;0.10;0.10;;;;;;;;;;5025686;28;20430;-75
2021/12/30 08:53:06;;;;;;;0.10;0.10;;;;;;;;;;5025971;28;20205;-76
2021/12/30 08:55:33;;;;;;;0.10;0.10;;;;;;;;;;5025881;28;20198;-76
2021/12/30 08:58:00;;;;;;;0.10;0.10;;;;;;;;;;5025988;28;20269;-76
2021/12/30 09:00:27;;;;;;;0.10;0.10;;;;;;;;;;5026100;28;20214;-76
2021/12/30 09:02:54;;;;;;;0.10;0.10;;;;;;;;;;5025579;28;20207;-76
2021/12/30 09:05:21;;;;;;;0.10;0.10;;;;;;;;;;5014567;28;20212;-76
2021/12/30 09:07:47;;;;;;;0.10;0.10;;;;;;;;;;5022966;28;20200;-76
2021/12/30 09:10:15;;;;;;;0.10;0.10;;;;;;;;;;5025988;28;20390;-76
2021/12/30 09:12:44;;;;;;;0.10;0.10;;;;;;;;;;5025949;28;20248;-76
2021/12/30 09:15:11;;;;;;;0.20;0.20;;;;;;;;;;5006214;28;20234;-76
2021/12/30 09:17:37;;;;;;;0.10;0.10;;;;;;;;;;5013445;28;20452;-77
2021/12/30 09:20:04;;;;;;;0.10;0.10;;;;;;;;;;5018871;28;20437;-76
2021/12/30 09:22:30;;;;;;;0.10;0.10;;;;;;;;;;5018631;28;20213;-75
2021/12/30 09:24:56;;;;;;;0.10;0.10;;;;;;;;;;5017307;28;20274;-77
2021/12/30 09:27:23;;;;;;;0.10;0.10;;;;;;;;;;5014310;28;20208;-77
2021/12/30 09:29:50;;;;;;;0.10;0.10;;;;;;;;;;5013146;28;20207;-76
2021/12/30 09:32:16;;;;;;;0.10;0.10;;;;;;;;;;5018979;28;20219;-77
2021/12/30 09:34:44;;;;;;;0.10;0.10;;;;;;;;;;5011014;28;20202;-76
2021/12/30 09:37:10;;;;;;;0.10;0.10;;;;;;;;;;5012196;28;20208;-76
2021/12/30 09:39:40;;;;;;;0.10;0.10;;;;;;;;;;5014040;28;20232;-73
2021/12/30 09:42:07;;;;;;;0.10;0.10;;;;;;;;;;5015022;28;20213;-76
2021/12/30 09:44:33;;;;;;;0.10;0.10;;;;;;;;;;5014976;28;20208;-73
2021/12/30 09:47:01;;;;;;;0.83;0.83;;;;;;;;;;5019699;28;20218;-77
2021/12/30 09:49:27;;;;;;;0.13;0.13;;;;;;;;;;5018694;28;20226;-77
2021/12/30 09:51:54;;;;;;;0.10;0.10;;;;;;;;;;5013215;28;20231;-75
2021/12/30 09:54:21;;;;;;;0.10;0.10;;;;;;;;;;5015434;28;20364;-74
2021/12/30 09:56:48;;;;;;;0.10;0.10;;;;;;;;;;5017217;28;20377;-74
2021/12/30 09:59:14;;;;;;;0.10;0.10;;;;;;;;;;5016337;28;20234;-76
2021/12/30 10:01:42;;;;;;;0.10;0.10;;;;;;;;;;5024675;28;20210;-75
2021/12/30 10:04:10;;;;;;;0.10;0.10;;;;;;;;;;5022572;28;20367;-76
2021/12/30 10:06:41;;;;;;;0.10;0.10;;;;;;;;;;5018688;28;20228;-76
2021/12/30 10:09:12;;;;;;;0.10;0.10;;;;;;;;;;5014344;28;20237;-76
2021/12/30 10:11:46;;;;;;;0.10;0.10;;;;;;;;;;5015954;28;20261;-77
2021/12/30 10:14:12;;;;;;;0.10;0.10;;;;;;;;;;5015560;28;20210;-76
2021/12/30 10:16:39;;;;;;;0.10;0.10;;;;;;;;;;5023677;28;20206;-77
2021/12/30 10:19:06;;;;;;;0.10;0.10;;;;;;;;;;5025154;28;20250;-76
2021/12/30 10:21:34;;;;;;;0.10;0.10;;;;;;;;;;5024296;28;20205;-76
2021/12/30 10:24:02;;;;;;;0.10;0.10;;;;;;;;;;5024486;28;20211;-76
2021/12/30 10:26:28;;;;;;;0.20;0.20;;;;;;;;;;5024336;28;20207;-76
2021/12/30 10:28:55;;;;;;;0.10;0.10;;;;;;;;;;5024141;28;20203;-76
2021/12/30 10:31:23;;;;;;;0.10;0.10;;;;;;;;;;5024235;28;20460;-76
2021/12/30 10:33:51;;;;;;;0.10;0.10;;;;;;;;;;5023850;28;20223;-77
2021/12/30 10:36:18;;;;;;;0.20;0.20;;;;;;;;;;5024058;28;20214;-76
2021/12/30 10:38:46;;;;;;;0.10;0.10;;;;;;;;;;5023529;28;20261;-76
2021/12/30 10:41:13;;;;;;;0.10;0.10;;;;;;;;;;5024142;28;20575;-76
2021/12/30 10:43:45;;;;;;;0.10;0.10;;;;;;;;;;5023841;28;20264;-76
2021/12/30 10:46:18;;;;;;;0.10;0.10;;;;;;;;;;5024134;28;20233;-76
2021/12/30 10:48:46;;;;;;;0.10;0.10;;;;;;;;;;5023527;28;20204;-76
2021/12/30 10:51:13;;;;;;;0.10;0.10;;;;;;;;;;5023433;28;20277;-76
2021/12/30 10:53:39;;;;;;;0.10;0.10;;;;;;;;;;5005566;28;20235;-76
2021/12/30 10:56:20;;;;;;;0.10;0.10;;;;;;;;;;5003866;28;20200;-76
2021/12/30 10:58:46;;;;;;;0.10;0.10;;;;;;;;;;5004128;28;20258;-76
2021/12/30 11:01:14;;;;;;;0.10;0.10;;;;;;;;;;5003914;28;20200;-76
2021/12/30 11:03:42;;;;;;;0.10;0.10;;;;;;;;;;5003740;28;20207;-76
2021/12/30 11:06:12;;;;;;;0.10;0.10;;;;;;;;;;5003218;28;20213;-76
2021/12/30 11:08:38;;;;;;;0.10;0.10;;;;;;;;;;5004064;28;20274;-75
2021/12/30 11:11:21;;;;;;;0.10;0.10;;;;;;;;;;5009109;28;20211;-76
2021/12/30 11:13:57;;;;;;;0.10;0.10;;;;;;;;;;5014604;28;20392;-77
2021/12/30 11:16:24;;;;;;;0.10;0.10;;;;;;;;;;5014875;28;20246;-76
2021/12/30 11:18:50;;;;;;;0.10;0.10;;;;;;;;;;5003829;28;20255;-75
2021/12/30 11:21:31;;;;;;;0.10;0.10;;;;;;;;;;5009253;28;20208;-74
2021/12/30 11:23:57;;;;;;;0.10;0.10;;;;;;;;;;5013711;28;20230;-72
2021/12/30 11:26:23;;;;;;;0.10;0.10;;;;;;;;;;5012463;28;20249;-73
2021/12/30 11:28:50;;;;;;;0.10;0.10;;;;;;;;;;5003704;28;20204;-73
2021/12/30 11:31:17;;;;;;;0.10;0.10;;;;;;;;;;5003756;28;20209;-74
2021/12/30 11:33:44;;;;;;;0.10;0.10;;;;;;;;;;5003783;28;20208;-74
2021/12/30 11:36:10;;;;;;;0.10;0.10;;;;;;;;;;5003460;28;20222;-73
2021/12/30 11:38:36;;;;;;;0.10;0.10;;;;;;;;;;5003313;28;20225;-73
2021/12/30 11:41:03;;;;;;;0.10;0.10;;;;;;;;;;5003601;28;20207;-73
2021/12/30 11:43:42;;;;;;;0.10;0.10;;;;;;;;;;5021980;28;20207;-74
2021/12/30 11:46:08;;;;;;;0.10;0.10;;;;;;;;;;5023291;28;20518;-73
2021/12/30 11:48:38;;;;;;;0.10;0.10;;;;;;;;;;5022982;28;20205;-73
2021/12/30 11:51:05;;;;;;;0.10;0.10;;;;;;;;;;5016220;28;20294;-74
2021/12/30 11:53:32;;;;;;;0.10;0.10;;;;;;;;;;5003560;28;20265;-73
2021/12/30 11:55:59;;;;;;;0.10;0.10;;;;;;;;;;5003141;28;20229;-73
2021/12/30 11:58:31;;;;;;;0.10;0.10;;;;;;;;;;5003144;28;20251;-72
2021/12/30 12:00:58;;;;;;;0.10;0.10;;;;;;;;;;5003133;28;20208;-72
2021/12/30 12:03:28;;;;;;;0.10;0.10;;;;;;;;;;5003442;28;20206;-73
2021/12/30 12:05:56;;;;;;;0.10;0.10;;;;;;;;;;5003109;28;20506;-68
2021/12/30 12:08:27;;;;;;;0.10;0.10;;;;;;;;;;5003668;28;20261;-76
2021/12/30 12:11:08;;;;;;;0.10;0.10;;;;;;;;;;5003539;28;20239;-72
2021/12/30 12:13:35;;;;;;;0.10;0.10;;;;;;;;;;5024843;28;20202;-73
2021/12/30 12:16:02;;;;;;;0.10;0.10;;;;;;;;;;5043762;28;20282;-74
2021/12/30 12:18:29;;;;;;;0.40;0.40;;;;;;;;;;5046423;28;20251;-75
2021/12/30 12:20:57;;;;;;;0.10;0.10;;;;;;;;;;5046778;28;20234;-75
2021/12/30 12:23:31;;;;;;;0.10;0.10;;;;;;;;;;5046528;28;20213;-79
2021/12/30 12:26:05;;;;;;;0.10;0.10;;;;;;;;;;5046287;28;20213;-77
2021/12/30 12:28:31;;;;;;;0.10;0.10;;;;;;;;;;5046613;28;20195;-74
2021/12/30 12:30:58;;;;;;;0.10;0.10;;;;;;;;;;5046199;28;20264;-71
2021/12/30 12:33:24;;;;;;;0.10;0.10;;;;;;;;;;5029684;28;20544;-75
2021/12/30 12:35:51;;;;;;;0.10;0.10;;;;;;;;;;5026227;28;20213;-73
2021/12/30 12:38:35;;;;;;;0.10;0.10;;;;;;;;;;5026491;28;20246;-73
2021/12/30 12:41:02;;;;;;;0.10;0.10;;;;;;;;;;5026533;28;20248;-75
2021/12/30 12:43:31;;;;;;;0.10;0.10;;;;;;;;;;5025973;28;20448;-73
2021/12/30 12:45:59;;;;;;;0.10;0.10;;;;;;;;;;5020315;28;20418;-75
2021/12/30 12:48:33;;;;;;;0.10;0.10;;;;;;;;;;5026069;28;20510;-73
2021/12/30 12:51:00;;;;;;;0.10;0.10;;;;;;;;;;5025865;28;20471;-77
2021/12/30 12:53:45;;;;;;;0.10;0.10;;;;;;;;;;5026130;28;20425;-72
2021/12/30 12:56:12;;;;;;;0.10;0.10;;;;;;;;;;5026001;28;20499;-76
2021/12/30 12:58:40;;;;;;;0.10;0.10;;;;;;;;;;5025681;28;20439;-72
2021/12/30 13:01:08;;;;;;;0.10;0.10;;;;;;;;;;5025720;28;20208;-71
2021/12/30 13:03:36;;;;;;;0.10;0.10;;;;;;;;;;5026018;28;20326;-77
2021/12/30 13:06:03;;;;;;;0.10;0.10;;;;;;;;;;5025594;28;20207;-80
2021/12/30 13:08:30;;;;;;;0.10;0.10;;;;;;;;;;5025824;28;20363;-72
2021/12/30 13:10:59;;;;;;;0.10;0.10;;;;;;;;;;5026229;28;20258;-75
2021/12/30 13:13:29;;;;;;;0.10;0.10;;;;;;;;;;5025606;28;20496;-72
2021/12/30 13:15:55;;;;;;;0.10;0.10;;;;;;;;;;5025646;28;20482;-74
2021/12/30 13:18:22;;;;;;;0.00;0.00;;;;;;;;;;5025578;28;20208;-76
2021/12/30 13:20:49;;;;;;;0.10;0.10;;;;;;;;;;5025382;28;20241;-76
2021/12/30 13:23:25;;;;;;;0.97;0.97;;;;;;;;;;5025160;28;20403;-73
2021/12/30 13:25:58;;;;;;;0.47;0.47;;;;;;;;;;5024763;28;20231;-74
2021/12/30 13:28:25;;;;;;;0.10;0.10;;;;;;;;;;5021451;28;20419;-74
2021/12/30 13:30:51;;;;;;;0.10;0.10;;;;;;;;;;5021918;28;20201;-74
2021/12/30 13:33:17;;;;;;;0.10;0.10;;;;;;;;;;5024267;28;20249;-73
2021/12/30 13:35:44;;;;;;;0.10;0.10;;;;;;;;;;5025280;28;20254;-80
2021/12/30 13:38:10;;;;;;;0.10;0.10;;;;;;;;;;5025141;28;20235;-74
2021/12/30 13:40:42;;;;;;;0.10;0.10;;;;;;;;;;5025517;28;20225;-71
2021/12/30 13:43:51;;;;;;;0.10;0.10;;;;;;;;;;5025085;28;20202;-76
2021/12/30 13:46:23;;;;;;;0.10;0.10;;;;;;;;;;5025285;28;20203;-74
2021/12/30 13:48:52;;;;;;;0.10;0.10;;;;;;;;;;5021897;28;20202;-75
2021/12/30 13:51:22;;;;;;;0.10;0.10;;;;;;;;;;5023993;28;20248;-75
2021/12/30 13:53:51;;;;;;;0.10;0.10;;;;;;;;;;5021367;28;20283;-74
2021/12/30 13:56:22;;;;;;;0.10;0.10;;;;;;;;;;5023753;28;20204;-75
2021/12/30 13:58:50;;;;;;;2.47;2.33;;;;;;;;;;5026800;28;20217;-73
2021/12/30 14:01:17;;;;;;;0.10;0.10;;;;;;;;;;5024426;28;20231;-74
2021/12/30 14:03:46;;;;;;;0.10;0.10;;;;;;;;;;5022265;28;20211;-73
2021/12/30 14:06:12;;;;;;;0.10;0.10;;;;;;;;;;5021456;28;20557;-76
2021/12/30 14:08:40;;;;;;;1.23;1.23;;;;;;;;;;5024665;28;20294;-74
2021/12/30 14:11:07;;;;;;;0.10;0.10;;;;;;;;;;5024637;28;20453;-76
2021/12/30 14:13:39;;;;;;;0.10;0.10;;;;;;;;;;5034966;28;20201;-77
2021/12/30 14:16:06;;;;;;;0.10;0.10;;;;;;;;;;5044083;28;20214;-72
2021/12/30 14:18:34;;;;;;;0.10;0.10;;;;;;;;;;5043969;28;20212;-72
2021/12/30 14:21:01;;;;;;;0.10;0.10;;;;;;;;;;5044135;28;20392;-70
2021/12/30 14:23:29;;;;;;;0.10;0.10;;;;;;;;;;5043941;28;20272;-71
2021/12/30 14:25:55;;;;;;;0.10;0.10;;;;;;;;;;5044137;28;20213;-69
2021/12/30 14:28:22;;;;;;;0.10;0.10;;;;;;;;;;5027702;28;20212;-74
2021/12/30 14:30:49;;;;;;;0.10;0.10;;;;;;;;;;5020489;28;20199;-76
2021/12/30 14:33:18;;;;;;;0.10;0.10;;;;;;;;;;5017557;28;20216;-74
2021/12/30 14:35:45;;;;;;;0.10;0.10;;;;;;;;;;5020784;28;20543;-74
2021/12/30 14:38:26;;;;;;;0.10;0.10;;;;;;;;;;5019958;28;20207;-73
2021/12/30 14:41:06;;;;;;;0.10;0.10;;;;;;;;;;5020263;28;20226;-75
2021/12/30 14:43:32;;;;;;;0.10;0.10;;;;;;;;;;5016195;28;20530;-74
2021/12/30 14:46:12;;;;;;;0.10;0.10;;;;;;;;;;5022470;28;20213;-74